sensor_id;sensor_type;location;lat;lon;timestamp;P1;durP1;ratioP1;P2;durP2;ratioP2
66761;SDS011;53672;48.176;16.338;2023-04-03T00:04:41;7.68;;;3.15;;
66761;SDS011;53672;48.176;16.338;2023-04-03T00:09:42;6.20;;;2.70;;
66761;SDS011;53672;48.176;16.338;2023-04-03T00:14:44;6.20;;;2.80;;
66761;SDS011;53672;48.176;16.338;2023-04-03T00:19:44;6.07;;;2.70;;
66761;SDS011;53672;48.176;16.338;2023-04-03T00:24:44;5.83;;;2.60;;
66761;SDS011;53672;48.176;16.338;2023-04-03T00:29:46;5.95;;;2.50;;
66761;SDS011;53672;48.176;16.338;2023-04-03T00:34:47;6.37;;;2.30;;
66761;SDS011;53672;48.176;16.338;2023-04-03T00:39:48;5.82;;;2.55;;
66761;SDS011;53672;48.176;16.338;2023-04-03T00:50:27;5.55;;;2.80;;
66761;SDS011;53672;48.176;16.338;2023-04-03T00:55:29;6.25;;;2.67;;
66761;SDS011;53672;48.176;16.338;2023-04-03T01:00:31;5.93;;;2.60;;
66761;SDS011;53672;48.176;16.338;2023-04-03T01:05:32;7.03;;;2.75;;
66761;SDS011;53672;48.176;16.338;2023-04-03T01:10:34;6.25;;;3.00;;
66761;SDS011;53672;48.176;16.338;2023-04-03T01:15:36;5.73;;;2.73;;
66761;SDS011;53672;48.176;16.338;2023-04-03T01:20:50;7.33;;;3.20;;
66761;SDS011;53672;48.176;16.338;2023-04-03T01:26:11;6.63;;;3.00;;
66761;SDS011;53672;48.176;16.338;2023-04-03T01:31:15;7.28;;;3.10;;
66761;SDS011;53672;48.176;16.338;2023-04-03T01:36:23;6.90;;;2.83;;
66761;SDS011;53672;48.176;16.338;2023-04-03T01:41:26;7.55;;;3.08;;
66761;SDS011;53672;48.176;16.338;2023-04-03T01:46:27;7.20;;;3.17;;
66761;SDS011;53672;48.176;16.338;2023-04-03T01:51:29;7.13;;;2.97;;
66761;SDS011;53672;48.176;16.338;2023-04-03T01:56:30;6.90;;;3.08;;
66761;SDS011;53672;48.176;16.338;2023-04-03T02:01:30;6.23;;;2.73;;
66761;SDS011;53672;48.176;16.338;2023-04-03T02:06:32;6.00;;;2.67;;
66761;SDS011;53672;48.176;16.338;2023-04-03T02:11:33;7.63;;;2.90;;
66761;SDS011;53672;48.176;16.338;2023-04-03T02:16:33;6.07;;;2.80;;
66761;SDS011;53672;48.176;16.338;2023-04-03T02:21:35;7.80;;;3.20;;
66761;SDS011;53672;48.176;16.338;2023-04-03T02:26:36;6.85;;;3.35;;
66761;SDS011;53672;48.176;16.338;2023-04-03T02:31:36;7.40;;;2.90;;
66761;SDS011;53672;48.176;16.338;2023-04-03T02:36:38;6.40;;;2.83;;
66761;SDS011;53672;48.176;16.338;2023-04-03T02:41:38;7.00;;;3.30;;
66761;SDS011;53672;48.176;16.338;2023-04-03T02:46:39;7.57;;;3.20;;
66761;SDS011;53672;48.176;16.338;2023-04-03T02:51:41;8.00;;;3.28;;
66761;SDS011;53672;48.176;16.338;2023-04-03T02:56:41;7.17;;;3.10;;
66761;SDS011;53672;48.176;16.338;2023-04-03T03:01:42;6.77;;;3.10;;
66761;SDS011;53672;48.176;16.338;2023-04-03T03:06:44;7.22;;;3.20;;
66761;SDS011;53672;48.176;16.338;2023-04-03T03:11:44;8.65;;;3.42;;
66761;SDS011;53672;48.176;16.338;2023-04-03T03:16:45;6.80;;;2.80;;
66761;SDS011;53672;48.176;16.338;2023-04-03T03:21:47;6.53;;;2.90;;
66761;SDS011;53672;48.176;16.338;2023-04-03T03:26:47;6.88;;;2.97;;
66761;SDS011;53672;48.176;16.338;2023-04-03T03:31:48;5.53;;;2.70;;
66761;SDS011;53672;48.176;16.338;2023-04-03T03:36:50;7.47;;;2.83;;
66761;SDS011;53672;48.176;16.338;2023-04-03T03:41:50;6.05;;;2.90;;
66761;SDS011;53672;48.176;16.338;2023-04-03T03:46:51;6.73;;;3.23;;
66761;SDS011;53672;48.176;16.338;2023-04-03T03:51:52;6.63;;;2.97;;
66761;SDS011;53672;48.176;16.338;2023-04-03T03:56:53;11.23;;;3.88;;
66761;SDS011;53672;48.176;16.338;2023-04-03T04:01:53;6.00;;;2.90;;
66761;SDS011;53672;48.176;16.338;2023-04-03T04:06:55;6.17;;;2.93;;
66761;SDS011;53672;48.176;16.338;2023-04-03T04:11:56;6.63;;;3.00;;
66761;SDS011;53672;48.176;16.338;2023-04-03T04:16:56;6.80;;;3.10;;
66761;SDS011;53672;48.176;16.338;2023-04-03T04:21:58;7.60;;;3.67;;
66761;SDS011;53672;48.176;16.338;2023-04-03T04:26:59;6.87;;;3.10;;
66761;SDS011;53672;48.176;16.338;2023-04-03T04:31:59;7.90;;;3.33;;
66761;SDS011;53672;48.176;16.338;2023-04-03T04:37:01;7.30;;;3.25;;
66761;SDS011;53672;48.176;16.338;2023-04-03T04:42:01;6.20;;;2.97;;
66761;SDS011;53672;48.176;16.338;2023-04-03T04:47:02;6.07;;;3.30;;
66761;SDS011;53672;48.176;16.338;2023-04-03T04:52:04;6.43;;;2.97;;
66761;SDS011;53672;48.176;16.338;2023-04-03T04:57:04;7.18;;;3.00;;
66761;SDS011;53672;48.176;16.338;2023-04-03T05:02:05;7.87;;;3.50;;
66761;SDS011;53672;48.176;16.338;2023-04-03T05:07:07;5.97;;;2.97;;
66761;SDS011;53672;48.176;16.338;2023-04-03T05:12:07;6.07;;;3.25;;
66761;SDS011;53672;48.176;16.338;2023-04-03T05:17:08;6.57;;;2.93;;
66761;SDS011;53672;48.176;16.338;2023-04-03T05:22:10;7.40;;;3.13;;
66761;SDS011;53672;48.176;16.338;2023-04-03T05:27:10;7.82;;;3.38;;
66761;SDS011;53672;48.176;16.338;2023-04-03T05:32:11;6.97;;;3.30;;
66761;SDS011;53672;48.176;16.338;2023-04-03T05:37:13;7.47;;;3.30;;
66761;SDS011;53672;48.176;16.338;2023-04-03T05:42:13;6.18;;;2.95;;
66761;SDS011;53672;48.176;16.338;2023-04-03T05:47:14;10.53;;;3.10;;
66761;SDS011;53672;48.176;16.338;2023-04-03T05:52:19;6.23;;;2.87;;
66761;SDS011;53672;48.176;16.338;2023-04-03T05:57:21;6.55;;;2.65;;
66761;SDS011;53672;48.176;16.338;2023-04-03T06:02:23;6.30;;;2.93;;
66761;SDS011;53672;48.176;16.338;2023-04-03T06:07:26;7.18;;;3.20;;
66761;SDS011;53672;48.176;16.338;2023-04-03T06:12:27;7.33;;;3.33;;
66761;SDS011;53672;48.176;16.338;2023-04-03T06:17:27;8.65;;;3.65;;
66761;SDS011;53672;48.176;16.338;2023-04-03T06:22:29;7.60;;;3.07;;
66761;SDS011;53672;48.176;16.338;2023-04-03T06:27:30;7.53;;;3.40;;
66761;SDS011;53672;48.176;16.338;2023-04-03T06:32:30;7.33;;;3.20;;
66761;SDS011;53672;48.176;16.338;2023-04-03T06:37:32;7.43;;;3.20;;
66761;SDS011;53672;48.176;16.338;2023-04-03T06:42:33;6.57;;;3.13;;
66761;SDS011;53672;48.176;16.338;2023-04-03T06:47:33;7.47;;;3.20;;
66761;SDS011;53672;48.176;16.338;2023-04-03T06:52:35;6.83;;;3.07;;
66761;SDS011;53672;48.176;16.338;2023-04-03T06:57:35;8.82;;;3.15;;
66761;SDS011;53672;48.176;16.338;2023-04-03T07:02:36;7.55;;;3.10;;
66761;SDS011;53672;48.176;16.338;2023-04-03T07:07:38;7.53;;;2.97;;
66761;SDS011;53672;48.176;16.338;2023-04-03T07:12:39;6.63;;;2.67;;
66761;SDS011;53672;48.176;16.338;2023-04-03T07:17:40;6.20;;;2.95;;
66761;SDS011;53672;48.176;16.338;2023-04-03T07:22:42;9.00;;;2.92;;
66761;SDS011;53672;48.176;16.338;2023-04-03T07:27:42;6.03;;;2.83;;
66761;SDS011;53672;48.176;16.338;2023-04-03T07:32:42;7.80;;;2.90;;
66761;SDS011;53672;48.176;16.338;2023-04-03T07:37:44;7.20;;;2.60;;
66761;SDS011;53672;48.176;16.338;2023-04-03T07:42:45;6.07;;;2.63;;
66761;SDS011;53672;48.176;16.338;2023-04-03T07:47:45;7.00;;;2.67;;
66761;SDS011;53672;48.176;16.338;2023-04-03T07:52:48;6.57;;;3.00;;
66761;SDS011;53672;48.176;16.338;2023-04-03T07:57:48;5.90;;;2.80;;
66761;SDS011;53672;48.176;16.338;2023-04-03T08:02:49;6.43;;;2.87;;
66761;SDS011;53672;48.176;16.338;2023-04-03T08:07:51;6.27;;;2.80;;
66761;SDS011;53672;48.176;16.338;2023-04-03T08:12:51;7.40;;;3.13;;
66761;SDS011;53672;48.176;16.338;2023-04-03T08:17:52;8.50;;;3.47;;
66761;SDS011;53672;48.176;16.338;2023-04-03T08:22:54;6.68;;;3.13;;
66761;SDS011;53672;48.176;16.338;2023-04-03T08:27:54;8.37;;;2.67;;
66761;SDS011;53672;48.176;16.338;2023-04-03T08:32:55;8.90;;;3.00;;
66761;SDS011;53672;48.176;16.338;2023-04-03T08:37:57;5.95;;;2.95;;
66761;SDS011;53672;48.176;16.338;2023-04-03T08:43:01;6.40;;;2.80;;
66761;SDS011;53672;48.176;16.338;2023-04-03T08:48:12;5.95;;;3.00;;
66761;SDS011;53672;48.176;16.338;2023-04-03T08:53:17;6.87;;;3.27;;
66761;SDS011;53672;48.176;16.338;2023-04-03T08:58:21;5.07;;;2.97;;
66761;SDS011;53672;48.176;16.338;2023-04-03T09:03:24;5.03;;;2.90;;
66761;SDS011;53672;48.176;16.338;2023-04-03T09:08:27;5.03;;;2.95;;
66761;SDS011;53672;48.176;16.338;2023-04-03T09:13:30;6.03;;;3.07;;
66761;SDS011;53672;48.176;16.338;2023-04-03T09:18:35;4.63;;;2.50;;
66761;SDS011;53672;48.176;16.338;2023-04-03T09:23:45;6.35;;;2.60;;
66761;SDS011;53672;48.176;16.338;2023-04-03T09:28:49;5.27;;;2.60;;
66761;SDS011;53672;48.176;16.338;2023-04-03T09:33:50;5.83;;;2.80;;
66761;SDS011;53672;48.176;16.338;2023-04-03T09:39:03;5.70;;;2.50;;
66761;SDS011;53672;48.176;16.338;2023-04-03T09:44:17;5.68;;;2.42;;
66761;SDS011;53672;48.176;16.338;2023-04-03T09:49:21;5.57;;;2.50;;
66761;SDS011;53672;48.176;16.338;2023-04-03T09:54:37;6.00;;;2.90;;
66761;SDS011;53672;48.176;16.338;2023-04-03T09:59:41;6.77;;;3.10;;
66761;SDS011;53672;48.176;16.338;2023-04-03T10:04:44;6.32;;;3.30;;
66761;SDS011;53672;48.176;16.338;2023-04-03T10:09:47;7.20;;;3.00;;
66761;SDS011;53672;48.176;16.338;2023-04-03T10:14:55;7.07;;;3.00;;
66761;SDS011;53672;48.176;16.338;2023-04-03T10:19:58;7.00;;;3.10;;
66761;SDS011;53672;48.176;16.338;2023-04-03T10:25:10;6.82;;;2.70;;
66761;SDS011;53672;48.176;16.338;2023-04-03T10:30:29;5.85;;;2.65;;
66761;SDS011;53672;48.176;16.338;2023-04-03T10:35:37;5.45;;;2.58;;
66761;SDS011;53672;48.176;16.338;2023-04-03T10:40:47;7.68;;;3.05;;
66761;SDS011;53672;48.176;16.338;2023-04-03T10:45:57;7.87;;;2.97;;
66761;SDS011;53672;48.176;16.338;2023-04-03T10:51:06;6.28;;;2.78;;
66761;SDS011;53672;48.176;16.338;2023-04-03T10:56:18;6.75;;;3.20;;
66761;SDS011;53672;48.176;16.338;2023-04-03T11:01:23;5.80;;;3.00;;
66761;SDS011;53672;48.176;16.338;2023-04-03T11:06:30;6.40;;;3.03;;
66761;SDS011;53672;48.176;16.338;2023-04-03T11:11:37;6.30;;;2.43;;
66761;SDS011;53672;48.176;16.338;2023-04-03T11:16:41;7.68;;;2.45;;
66761;SDS011;53672;48.176;16.338;2023-04-03T11:21:46;7.28;;;2.50;;
66761;SDS011;53672;48.176;16.338;2023-04-03T11:26:55;7.68;;;2.50;;
66761;SDS011;53672;48.176;16.338;2023-04-03T11:32:04;5.90;;;2.40;;
66761;SDS011;53672;48.176;16.338;2023-04-03T11:37:22;6.07;;;2.70;;
66761;SDS011;53672;48.176;16.338;2023-04-03T11:42:32;5.78;;;2.60;;
66761;SDS011;53672;48.176;16.338;2023-04-03T11:53:02;6.03;;;2.88;;
66761;SDS011;53672;48.176;16.338;2023-04-03T11:58:25;6.25;;;2.60;;
66761;SDS011;53672;48.176;16.338;2023-04-03T12:03:31;5.40;;;2.50;;
66761;SDS011;53672;48.176;16.338;2023-04-03T12:08:47;6.70;;;2.28;;
66761;SDS011;53672;48.176;16.338;2023-04-03T12:14:04;6.47;;;2.60;;
66761;SDS011;53672;48.176;16.338;2023-04-03T12:24:34;7.68;;;2.60;;
66761;SDS011;53672;48.176;16.338;2023-04-03T12:29:38;6.73;;;2.77;;
66761;SDS011;53672;48.176;16.338;2023-04-03T12:34:49;7.97;;;2.60;;
66761;SDS011;53672;48.176;16.338;2023-04-03T12:40:01;6.20;;;2.72;;
66761;SDS011;53672;48.176;16.338;2023-04-03T12:45:15;6.45;;;2.22;;
66761;SDS011;53672;48.176;16.338;2023-04-03T12:50:23;6.05;;;2.75;;
66761;SDS011;53672;48.176;16.338;2023-04-03T12:55:27;7.07;;;2.57;;
66761;SDS011;53672;48.176;16.338;2023-04-03T13:00:30;6.27;;;2.30;;
66761;SDS011;53672;48.176;16.338;2023-04-03T13:05:32;7.00;;;2.72;;
66761;SDS011;53672;48.176;16.338;2023-04-03T13:10:42;6.57;;;2.55;;
66761;SDS011;53672;48.176;16.338;2023-04-03T13:15:47;6.47;;;2.60;;
66761;SDS011;53672;48.176;16.338;2023-04-03T13:20:48;5.80;;;2.50;;
66761;SDS011;53672;48.176;16.338;2023-04-03T13:25:49;6.30;;;2.90;;
66761;SDS011;53672;48.176;16.338;2023-04-03T13:30:59;5.95;;;2.50;;
66761;SDS011;53672;48.176;16.338;2023-04-03T13:36:04;6.53;;;2.70;;
66761;SDS011;53672;48.176;16.338;2023-04-03T13:41:21;6.57;;;2.50;;
66761;SDS011;53672;48.176;16.338;2023-04-03T13:46:26;6.70;;;2.70;;
66761;SDS011;53672;48.176;16.338;2023-04-03T13:51:28;6.03;;;2.33;;
66761;SDS011;53672;48.176;16.338;2023-04-03T13:56:30;6.13;;;2.60;;
66761;SDS011;53672;48.176;16.338;2023-04-03T14:01:36;7.05;;;2.85;;
66761;SDS011;53672;48.176;16.338;2023-04-03T14:06:41;5.43;;;2.63;;
66761;SDS011;53672;48.176;16.338;2023-04-03T14:11:42;5.10;;;2.30;;
66761;SDS011;53672;48.176;16.338;2023-04-03T14:16:45;5.80;;;2.05;;
66761;SDS011;53672;48.176;16.338;2023-04-03T14:21:47;5.57;;;2.30;;
66761;SDS011;53672;48.176;16.338;2023-04-03T14:26:48;5.32;;;2.20;;
66761;SDS011;53672;48.176;16.338;2023-04-03T14:31:51;9.13;;;2.40;;
66761;SDS011;53672;48.176;16.338;2023-04-03T14:36:52;5.15;;;2.28;;
66761;SDS011;53672;48.176;16.338;2023-04-03T14:41:52;5.73;;;2.30;;
66761;SDS011;53672;48.176;16.338;2023-04-03T14:46:54;6.20;;;2.47;;
66761;SDS011;53672;48.176;16.338;2023-04-03T14:51:55;6.95;;;2.60;;
66761;SDS011;53672;48.176;16.338;2023-04-03T14:56:57;5.97;;;2.37;;
66761;SDS011;53672;48.176;16.338;2023-04-03T15:02:00;6.85;;;2.40;;
66761;SDS011;53672;48.176;16.338;2023-04-03T15:07:12;6.72;;;2.22;;
66761;SDS011;53672;48.176;16.338;2023-04-03T15:12:12;7.20;;;2.43;;
66761;SDS011;53672;48.176;16.338;2023-04-03T15:17:16;6.53;;;2.47;;
66761;SDS011;53672;48.176;16.338;2023-04-03T15:22:19;6.88;;;2.35;;
66761;SDS011;53672;48.176;16.338;2023-04-03T15:27:20;5.55;;;2.42;;
66761;SDS011;53672;48.176;16.338;2023-04-03T15:32:22;7.07;;;2.60;;
66761;SDS011;53672;48.176;16.338;2023-04-03T15:37:23;5.43;;;2.40;;
66761;SDS011;53672;48.176;16.338;2023-04-03T15:42:23;7.00;;;2.25;;
66761;SDS011;53672;48.176;16.338;2023-04-03T15:47:25;5.77;;;2.23;;
66761;SDS011;53672;48.176;16.338;2023-04-03T15:52:27;5.53;;;2.30;;
66761;SDS011;53672;48.176;16.338;2023-04-03T15:57:27;4.40;;;1.98;;
66761;SDS011;53672;48.176;16.338;2023-04-03T16:02:29;7.67;;;2.93;;
66761;SDS011;53672;48.176;16.338;2023-04-03T16:07:30;4.73;;;2.00;;
66761;SDS011;53672;48.176;16.338;2023-04-03T16:12:30;5.80;;;2.33;;
66761;SDS011;53672;48.176;16.338;2023-04-03T16:17:32;4.97;;;2.10;;
66761;SDS011;53672;48.176;16.338;2023-04-03T16:22:33;6.63;;;2.40;;
66761;SDS011;53672;48.176;16.338;2023-04-03T16:27:34;5.40;;;2.17;;
66761;SDS011;53672;48.176;16.338;2023-04-03T16:32:37;7.25;;;2.28;;
66761;SDS011;53672;48.176;16.338;2023-04-03T16:37:39;7.13;;;2.10;;
66761;SDS011;53672;48.176;16.338;2023-04-03T16:42:39;6.00;;;2.23;;
66761;SDS011;53672;48.176;16.338;2023-04-03T16:47:41;5.50;;;2.20;;
66761;SDS011;53672;48.176;16.338;2023-04-03T16:52:42;5.25;;;2.20;;
66761;SDS011;53672;48.176;16.338;2023-04-03T16:57:45;10.00;;;2.90;;
66761;SDS011;53672;48.176;16.338;2023-04-03T17:02:47;6.10;;;2.30;;
66761;SDS011;53672;48.176;16.338;2023-04-03T17:07:47;5.27;;;2.20;;
66761;SDS011;53672;48.176;16.338;2023-04-03T17:12:48;6.05;;;2.10;;
66761;SDS011;53672;48.176;16.338;2023-04-03T17:17:50;5.93;;;2.23;;
66761;SDS011;53672;48.176;16.338;2023-04-03T17:22:52;5.63;;;2.43;;
66761;SDS011;53672;48.176;16.338;2023-04-03T17:27:54;6.80;;;2.65;;
66761;SDS011;53672;48.176;16.338;2023-04-03T17:32:56;6.47;;;2.20;;
66761;SDS011;53672;48.176;16.338;2023-04-03T17:37:56;7.03;;;2.50;;
66761;SDS011;53672;48.176;16.338;2023-04-03T17:42:57;5.93;;;2.13;;
66761;SDS011;53672;48.176;16.338;2023-04-03T17:47:59;7.23;;;2.20;;
66761;SDS011;53672;48.176;16.338;2023-04-03T17:52:59;5.57;;;2.35;;
66761;SDS011;53672;48.176;16.338;2023-04-03T17:58:00;7.47;;;2.50;;
66761;SDS011;53672;48.176;16.338;2023-04-03T18:03:02;5.93;;;2.70;;
66761;SDS011;53672;48.176;16.338;2023-04-03T18:08:04;7.80;;;2.60;;
66761;SDS011;53672;48.176;16.338;2023-04-03T18:13:07;5.27;;;2.17;;
66761;SDS011;53672;48.176;16.338;2023-04-03T18:18:10;7.15;;;2.10;;
66761;SDS011;53672;48.176;16.338;2023-04-03T18:23:11;6.30;;;2.27;;
66761;SDS011;53672;48.176;16.338;2023-04-03T18:28:13;6.50;;;2.30;;
66761;SDS011;53672;48.176;16.338;2023-04-03T18:33:15;7.47;;;2.80;;
66761;SDS011;53672;48.176;16.338;2023-04-03T18:38:16;5.83;;;2.30;;
66761;SDS011;53672;48.176;16.338;2023-04-03T18:43:19;7.50;;;2.47;;
66761;SDS011;53672;48.176;16.338;2023-04-03T18:48:21;5.75;;;2.58;;
66761;SDS011;53672;48.176;16.338;2023-04-03T18:53:22;7.07;;;2.88;;
66761;SDS011;53672;48.176;16.338;2023-04-03T18:58:24;6.97;;;2.60;;
66761;SDS011;53672;48.176;16.338;2023-04-03T19:03:27;8.02;;;2.90;;
66761;SDS011;53672;48.176;16.338;2023-04-03T19:08:30;10.37;;;2.93;;
66761;SDS011;53672;48.176;16.338;2023-04-03T19:13:32;7.75;;;2.72;;
66761;SDS011;53672;48.176;16.338;2023-04-03T19:18:36;7.22;;;2.40;;
66761;SDS011;53672;48.176;16.338;2023-04-03T19:23:37;9.70;;;2.73;;
66761;SDS011;53672;48.176;16.338;2023-04-03T19:28:38;9.25;;;3.15;;
66761;SDS011;53672;48.176;16.338;2023-04-03T19:33:40;10.57;;;2.73;;
66761;SDS011;53672;48.176;16.338;2023-04-03T19:38:42;5.78;;;2.40;;
66761;SDS011;53672;48.176;16.338;2023-04-03T19:43:43;7.90;;;2.53;;
66761;SDS011;53672;48.176;16.338;2023-04-03T19:48:49;7.07;;;2.40;;
66761;SDS011;53672;48.176;16.338;2023-04-03T19:53:51;9.50;;;3.58;;
66761;SDS011;53672;48.176;16.338;2023-04-03T19:58:52;6.70;;;2.53;;
66761;SDS011;53672;48.176;16.338;2023-04-03T20:03:54;7.65;;;2.60;;
66761;SDS011;53672;48.176;16.338;2023-04-03T20:08:57;6.03;;;2.33;;
66761;SDS011;53672;48.176;16.338;2023-04-03T20:14:00;6.55;;;2.35;;
66761;SDS011;53672;48.176;16.338;2023-04-03T20:19:02;7.57;;;2.60;;
66761;SDS011;53672;48.176;16.338;2023-04-03T20:24:03;7.30;;;2.40;;
66761;SDS011;53672;48.176;16.338;2023-04-03T20:29:05;6.53;;;2.40;;
66761;SDS011;53672;48.176;16.338;2023-04-03T20:34:07;5.53;;;2.37;;
66761;SDS011;53672;48.176;16.338;2023-04-03T20:39:08;7.50;;;2.80;;
66761;SDS011;53672;48.176;16.338;2023-04-03T20:44:09;6.57;;;2.50;;
66761;SDS011;53672;48.176;16.338;2023-04-03T20:49:11;7.22;;;2.70;;
66761;SDS011;53672;48.176;16.338;2023-04-03T20:54:11;7.38;;;2.60;;
66761;SDS011;53672;48.176;16.338;2023-04-03T20:59:12;7.23;;;2.70;;
66761;SDS011;53672;48.176;16.338;2023-04-03T21:04:15;6.70;;;2.70;;
66761;SDS011;53672;48.176;16.338;2023-04-03T21:20:35;6.72;;;2.60;;
66761;SDS011;53672;48.176;16.338;2023-04-03T21:25:36;7.13;;;2.70;;
66761;SDS011;53672;48.176;16.338;2023-04-03T21:30:36;6.20;;;2.50;;
66761;SDS011;53672;48.176;16.338;2023-04-03T21:35:38;8.65;;;2.78;;
66761;SDS011;53672;48.176;16.338;2023-04-03T21:40:38;8.57;;;2.70;;
66761;SDS011;53672;48.176;16.338;2023-04-03T21:45:39;7.60;;;2.50;;
66761;SDS011;53672;48.176;16.338;2023-04-03T21:50:41;6.65;;;2.60;;
66761;SDS011;53672;48.176;16.338;2023-04-03T21:55:41;7.13;;;2.70;;
66761;SDS011;53672;48.176;16.338;2023-04-03T22:00:51;5.80;;;2.65;;
66761;SDS011;53672;48.176;16.338;2023-04-03T22:05:52;6.87;;;2.63;;
66761;SDS011;53672;48.176;16.338;2023-04-03T22:11:00;8.85;;;2.80;;
66761;SDS011;53672;48.176;16.338;2023-04-03T22:16:01;8.63;;;3.00;;
66761;SDS011;53672;48.176;16.338;2023-04-03T22:21:04;7.32;;;2.55;;
66761;SDS011;53672;48.176;16.338;2023-04-03T22:26:05;7.33;;;2.60;;
66761;SDS011;53672;48.176;16.338;2023-04-03T22:31:07;8.07;;;2.72;;
66761;SDS011;53672;48.176;16.338;2023-04-03T22:36:10;5.65;;;2.45;;
66761;SDS011;53672;48.176;16.338;2023-04-03T22:41:11;8.73;;;2.75;;
66761;SDS011;53672;48.176;16.338;2023-04-03T22:46:12;8.27;;;2.90;;
66761;SDS011;53672;48.176;16.338;2023-04-03T22:51:14;7.30;;;2.70;;
66761;SDS011;53672;48.176;16.338;2023-04-03T22:56:14;6.83;;;2.30;;
66761;SDS011;53672;48.176;16.338;2023-04-03T23:01:14;5.93;;;2.47;;
66761;SDS011;53672;48.176;16.338;2023-04-03T23:06:16;7.20;;;2.30;;
66761;SDS011;53672;48.176;16.338;2023-04-03T23:11:17;7.88;;;2.60;;
66761;SDS011;53672;48.176;16.338;2023-04-03T23:16:17;7.33;;;2.40;;
66761;SDS011;53672;48.176;16.338;2023-04-03T23:21:19;8.40;;;2.80;;
66761;SDS011;53672;48.176;16.338;2023-04-03T23:26:20;6.90;;;2.25;;
66761;SDS011;53672;48.176;16.338;2023-04-03T23:31:20;5.63;;;2.60;;
66761;SDS011;53672;48.176;16.338;2023-04-03T23:36:22;6.20;;;2.37;;
66761;SDS011;53672;48.176;16.338;2023-04-03T23:41:23;7.20;;;2.40;;
66761;SDS011;53672;48.176;16.338;2023-04-03T23:46:23;7.13;;;2.70;;
66761;SDS011;53672;48.176;16.338;2023-04-03T23:51:25;7.83;;;2.87;;
66761;SDS011;53672;48.176;16.338;2023-04-03T23:56:25;8.87;;;2.70;;
